sensor_id;sensor_type;location;lat;lon;timestamp;P1;durP1;ratioP1;P2;durP2;ratioP2
62582;SDS011;48641;51.676;5.808;2023-07-09T00:01:57;6.20;;;2.40;;
62582;SDS011;48641;51.676;5.808;2023-07-09T00:04:22;6.25;;;2.90;;
62582;SDS011;48641;51.676;5.808;2023-07-09T00:06:48;6.47;;;2.80;;
62582;SDS011;48641;51.676;5.808;2023-07-09T00:09:15;6.13;;;2.95;;
62582;SDS011;48641;51.676;5.808;2023-07-09T00:11:43;6.18;;;2.88;;
62582;SDS011;48641;51.676;5.808;2023-07-09T00:14:10;6.63;;;2.80;;
62582;SDS011;48641;51.676;5.808;2023-07-09T00:16:37;6.75;;;3.00;;
62582;SDS011;48641;51.676;5.808;2023-07-09T00:19:13;6.63;;;2.83;;
62582;SDS011;48641;51.676;5.808;2023-07-09T00:21:41;6.93;;;2.65;;
62582;SDS011;48641;51.676;5.808;2023-07-09T00:24:10;6.20;;;2.67;;
62582;SDS011;48641;51.676;5.808;2023-07-09T00:26:38;7.03;;;2.90;;
62582;SDS011;48641;51.676;5.808;2023-07-09T00:29:11;6.65;;;2.97;;
62582;SDS011;48641;51.676;5.808;2023-07-09T00:31:37;6.50;;;2.90;;
62582;SDS011;48641;51.676;5.808;2023-07-09T00:34:08;6.18;;;2.95;;
62582;SDS011;48641;51.676;5.808;2023-07-09T00:36:37;7.22;;;3.08;;
62582;SDS011;48641;51.676;5.808;2023-07-09T00:39:04;5.10;;;2.60;;
62582;SDS011;48641;51.676;5.808;2023-07-09T00:41:36;5.50;;;2.60;;
62582;SDS011;48641;51.676;5.808;2023-07-09T00:49:12;6.10;;;2.80;;
62582;SDS011;48641;51.676;5.808;2023-07-09T00:51:43;6.22;;;2.80;;
62582;SDS011;48641;51.676;5.808;2023-07-09T00:54:18;5.93;;;2.67;;
62582;SDS011;48641;51.676;5.808;2023-07-09T00:56:59;6.50;;;3.10;;
62582;SDS011;48641;51.676;5.808;2023-07-09T00:59:31;7.78;;;3.33;;
62582;SDS011;48641;51.676;5.808;2023-07-09T01:01:58;6.40;;;2.78;;
62582;SDS011;48641;51.676;5.808;2023-07-09T01:04:25;5.80;;;2.78;;
62582;SDS011;48641;51.676;5.808;2023-07-09T01:06:53;6.70;;;3.08;;
62582;SDS011;48641;51.676;5.808;2023-07-09T01:09:21;5.60;;;2.75;;
62582;SDS011;48641;51.676;5.808;2023-07-09T01:11:48;6.18;;;2.90;;
62582;SDS011;48641;51.676;5.808;2023-07-09T01:14:15;6.03;;;2.92;;
62582;SDS011;48641;51.676;5.808;2023-07-09T01:16:52;5.95;;;2.67;;
62582;SDS011;48641;51.676;5.808;2023-07-09T01:19:26;6.80;;;3.23;;
62582;SDS011;48641;51.676;5.808;2023-07-09T01:22:02;6.65;;;2.95;;
62582;SDS011;48641;51.676;5.808;2023-07-09T01:24:47;6.28;;;2.92;;
62582;SDS011;48641;51.676;5.808;2023-07-09T01:27:31;6.32;;;3.10;;
62582;SDS011;48641;51.676;5.808;2023-07-09T01:30:08;6.85;;;3.22;;
62582;SDS011;48641;51.676;5.808;2023-07-09T01:32:39;6.85;;;2.80;;
62582;SDS011;48641;51.676;5.808;2023-07-09T01:35:10;6.38;;;3.00;;
62582;SDS011;48641;51.676;5.808;2023-07-09T01:37:38;6.22;;;2.95;;
62582;SDS011;48641;51.676;5.808;2023-07-09T01:40:04;6.85;;;3.25;;
62582;SDS011;48641;51.676;5.808;2023-07-09T01:42:34;6.28;;;3.00;;
62582;SDS011;48641;51.676;5.808;2023-07-09T01:45:01;6.45;;;2.70;;
62582;SDS011;48641;51.676;5.808;2023-07-09T01:47:29;5.83;;;2.70;;
62582;SDS011;48641;51.676;5.808;2023-07-09T01:49:55;6.07;;;2.97;;
62582;SDS011;48641;51.676;5.808;2023-07-09T01:52:22;8.07;;;2.90;;
62582;SDS011;48641;51.676;5.808;2023-07-09T01:54:50;6.50;;;3.00;;
62582;SDS011;48641;51.676;5.808;2023-07-09T01:57:20;6.68;;;3.17;;
62582;SDS011;48641;51.676;5.808;2023-07-09T01:59:48;6.45;;;2.70;;
62582;SDS011;48641;51.676;5.808;2023-07-09T02:02:18;7.07;;;3.00;;
62582;SDS011;48641;51.676;5.808;2023-07-09T02:04:45;8.13;;;3.17;;
62582;SDS011;48641;51.676;5.808;2023-07-09T02:07:12;7.13;;;3.25;;
62582;SDS011;48641;51.676;5.808;2023-07-09T02:09:37;6.65;;;3.15;;
62582;SDS011;48641;51.676;5.808;2023-07-09T02:12:03;6.93;;;3.20;;
62582;SDS011;48641;51.676;5.808;2023-07-09T02:14:29;7.20;;;3.13;;
62582;SDS011;48641;51.676;5.808;2023-07-09T02:16:55;6.00;;;2.90;;
62582;SDS011;48641;51.676;5.808;2023-07-09T02:19:20;6.20;;;3.22;;
62582;SDS011;48641;51.676;5.808;2023-07-09T02:21:46;7.57;;;3.05;;
62582;SDS011;48641;51.676;5.808;2023-07-09T02:24:11;5.88;;;2.88;;
62582;SDS011;48641;51.676;5.808;2023-07-09T02:26:37;6.22;;;2.72;;
62582;SDS011;48641;51.676;5.808;2023-07-09T02:29:03;6.50;;;3.03;;
62582;SDS011;48641;51.676;5.808;2023-07-09T02:31:28;6.13;;;3.03;;
62582;SDS011;48641;51.676;5.808;2023-07-09T02:33:55;6.90;;;3.00;;
62582;SDS011;48641;51.676;5.808;2023-07-09T02:36:21;6.30;;;3.15;;
62582;SDS011;48641;51.676;5.808;2023-07-09T02:38:46;7.30;;;3.47;;
62582;SDS011;48641;51.676;5.808;2023-07-09T02:41:12;6.70;;;3.35;;
62582;SDS011;48641;51.676;5.808;2023-07-09T02:43:37;6.60;;;3.10;;
62582;SDS011;48641;51.676;5.808;2023-07-09T02:46:03;6.82;;;3.30;;
62582;SDS011;48641;51.676;5.808;2023-07-09T02:48:29;7.50;;;3.30;;
62582;SDS011;48641;51.676;5.808;2023-07-09T02:50:54;6.00;;;2.90;;
62582;SDS011;48641;51.676;5.808;2023-07-09T02:53:21;6.80;;;3.17;;
62582;SDS011;48641;51.676;5.808;2023-07-09T02:55:46;7.03;;;3.40;;
62582;SDS011;48641;51.676;5.808;2023-07-09T02:58:12;7.32;;;3.28;;
62582;SDS011;48641;51.676;5.808;2023-07-09T03:00:38;6.18;;;3.03;;
62582;SDS011;48641;51.676;5.808;2023-07-09T03:03:03;7.32;;;3.25;;
62582;SDS011;48641;51.676;5.808;2023-07-09T03:05:29;6.28;;;3.30;;
62582;SDS011;48641;51.676;5.808;2023-07-09T03:07:54;5.85;;;3.33;;
62582;SDS011;48641;51.676;5.808;2023-07-09T03:10:20;7.00;;;3.15;;
62582;SDS011;48641;51.676;5.808;2023-07-09T03:12:45;7.05;;;3.20;;
62582;SDS011;48641;51.676;5.808;2023-07-09T03:15:11;6.18;;;3.17;;
62582;SDS011;48641;51.676;5.808;2023-07-09T03:17:37;7.55;;;3.58;;
62582;SDS011;48641;51.676;5.808;2023-07-09T03:20:02;6.93;;;3.17;;
62582;SDS011;48641;51.676;5.808;2023-07-09T03:22:29;6.30;;;3.30;;
62582;SDS011;48641;51.676;5.808;2023-07-09T03:24:55;6.88;;;3.20;;
62582;SDS011;48641;51.676;5.808;2023-07-09T03:27:21;6.18;;;3.10;;
62582;SDS011;48641;51.676;5.808;2023-07-09T03:29:46;6.38;;;3.30;;
62582;SDS011;48641;51.676;5.808;2023-07-09T03:32:12;6.60;;;3.33;;
62582;SDS011;48641;51.676;5.808;2023-07-09T03:34:38;7.20;;;3.40;;
62582;SDS011;48641;51.676;5.808;2023-07-09T03:37:03;6.55;;;3.10;;
62582;SDS011;48641;51.676;5.808;2023-07-09T03:39:29;6.60;;;3.42;;
62582;SDS011;48641;51.676;5.808;2023-07-09T03:41:55;6.43;;;3.15;;
62582;SDS011;48641;51.676;5.808;2023-07-09T03:44:20;6.88;;;3.45;;
62582;SDS011;48641;51.676;5.808;2023-07-09T03:46:46;7.32;;;3.60;;
62582;SDS011;48641;51.676;5.808;2023-07-09T03:49:12;7.20;;;3.58;;
62582;SDS011;48641;51.676;5.808;2023-07-09T03:51:37;6.95;;;3.67;;
62582;SDS011;48641;51.676;5.808;2023-07-09T03:54:03;7.05;;;3.28;;
62582;SDS011;48641;51.676;5.808;2023-07-09T03:56:29;7.80;;;3.53;;
62582;SDS011;48641;51.676;5.808;2023-07-09T03:58:54;7.05;;;3.58;;
62582;SDS011;48641;51.676;5.808;2023-07-09T04:01:20;6.80;;;3.38;;
62582;SDS011;48641;51.676;5.808;2023-07-09T04:03:45;6.93;;;3.83;;
62582;SDS011;48641;51.676;5.808;2023-07-09T04:06:11;7.15;;;3.47;;
62582;SDS011;48641;51.676;5.808;2023-07-09T04:08:37;6.70;;;3.55;;
62582;SDS011;48641;51.676;5.808;2023-07-09T04:11:03;6.93;;;3.20;;
62582;SDS011;48641;51.676;5.808;2023-07-09T04:13:29;6.60;;;3.70;;
62582;SDS011;48641;51.676;5.808;2023-07-09T04:15:55;7.22;;;3.70;;
62582;SDS011;48641;51.676;5.808;2023-07-09T04:18:21;7.05;;;3.75;;
62582;SDS011;48641;51.676;5.808;2023-07-09T04:20:50;6.93;;;3.65;;
62582;SDS011;48641;51.676;5.808;2023-07-09T04:23:16;7.05;;;3.78;;
62582;SDS011;48641;51.676;5.808;2023-07-09T04:25:42;7.03;;;3.60;;
62582;SDS011;48641;51.676;5.808;2023-07-09T04:28:07;7.35;;;3.63;;
62582;SDS011;48641;51.676;5.808;2023-07-09T04:30:33;6.38;;;3.45;;
62582;SDS011;48641;51.676;5.808;2023-07-09T04:32:59;6.80;;;3.60;;
62582;SDS011;48641;51.676;5.808;2023-07-09T04:35:24;6.78;;;3.42;;
62582;SDS011;48641;51.676;5.808;2023-07-09T04:37:50;7.43;;;3.65;;
62582;SDS011;48641;51.676;5.808;2023-07-09T04:40:17;7.63;;;3.78;;
62582;SDS011;48641;51.676;5.808;2023-07-09T04:42:43;7.07;;;3.50;;
62582;SDS011;48641;51.676;5.808;2023-07-09T04:45:09;6.88;;;3.75;;
62582;SDS011;48641;51.676;5.808;2023-07-09T04:47:36;10.00;;;3.67;;
62582;SDS011;48641;51.676;5.808;2023-07-09T04:50:03;6.78;;;3.50;;
62582;SDS011;48641;51.676;5.808;2023-07-09T04:52:32;7.07;;;3.47;;
62582;SDS011;48641;51.676;5.808;2023-07-09T04:54:58;6.80;;;3.58;;
62582;SDS011;48641;51.676;5.808;2023-07-09T04:57:24;7.00;;;3.70;;
62582;SDS011;48641;51.676;5.808;2023-07-09T04:59:52;6.55;;;3.25;;
62582;SDS011;48641;51.676;5.808;2023-07-09T05:02:17;6.60;;;3.67;;
62582;SDS011;48641;51.676;5.808;2023-07-09T05:04:43;7.00;;;3.53;;
62582;SDS011;48641;51.676;5.808;2023-07-09T05:07:09;6.53;;;3.55;;
62582;SDS011;48641;51.676;5.808;2023-07-09T05:09:34;6.88;;;3.65;;
62582;SDS011;48641;51.676;5.808;2023-07-09T05:12:00;6.55;;;3.33;;
62582;SDS011;48641;51.676;5.808;2023-07-09T05:14:29;8.43;;;3.90;;
62582;SDS011;48641;51.676;5.808;2023-07-09T05:16:54;7.50;;;3.88;;
62582;SDS011;48641;51.676;5.808;2023-07-09T05:19:20;6.70;;;3.78;;
62582;SDS011;48641;51.676;5.808;2023-07-09T05:21:45;7.53;;;4.00;;
62582;SDS011;48641;51.676;5.808;2023-07-09T05:24:11;7.03;;;3.60;;
62582;SDS011;48641;51.676;5.808;2023-07-09T05:26:36;6.82;;;3.42;;
62582;SDS011;48641;51.676;5.808;2023-07-09T05:29:03;6.55;;;3.70;;
62582;SDS011;48641;51.676;5.808;2023-07-09T05:31:30;8.05;;;4.07;;
62582;SDS011;48641;51.676;5.808;2023-07-09T05:33:56;7.72;;;3.78;;
62582;SDS011;48641;51.676;5.808;2023-07-09T05:36:25;7.35;;;3.97;;
62582;SDS011;48641;51.676;5.808;2023-07-09T05:41:17;6.35;;;3.67;;
62582;SDS011;48641;51.676;5.808;2023-07-09T05:43:43;6.88;;;3.42;;
62582;SDS011;48641;51.676;5.808;2023-07-09T05:46:10;6.60;;;3.50;;
62582;SDS011;48641;51.676;5.808;2023-07-09T05:48:37;6.40;;;3.50;;
62582;SDS011;48641;51.676;5.808;2023-07-09T05:51:02;6.75;;;3.60;;
62582;SDS011;48641;51.676;5.808;2023-07-09T05:53:28;6.85;;;3.70;;
62582;SDS011;48641;51.676;5.808;2023-07-09T05:55:54;7.28;;;4.03;;
62582;SDS011;48641;51.676;5.808;2023-07-09T05:58:21;7.65;;;3.75;;
62582;SDS011;48641;51.676;5.808;2023-07-09T06:00:49;8.55;;;4.25;;
62582;SDS011;48641;51.676;5.808;2023-07-09T06:03:19;7.47;;;4.28;;
62582;SDS011;48641;51.676;5.808;2023-07-09T06:05:46;9.80;;;5.30;;
62582;SDS011;48641;51.676;5.808;2023-07-09T06:08:14;8.23;;;4.50;;
62582;SDS011;48641;51.676;5.808;2023-07-09T06:10:49;7.15;;;4.30;;
62582;SDS011;48641;51.676;5.808;2023-07-09T06:13:25;10.27;;;7.00;;
62582;SDS011;48641;51.676;5.808;2023-07-09T06:15:53;13.57;;;9.80;;
62582;SDS011;48641;51.676;5.808;2023-07-09T06:18:20;12.50;;;8.88;;
62582;SDS011;48641;51.676;5.808;2023-07-09T06:20:50;16.10;;;12.80;;
62582;SDS011;48641;51.676;5.808;2023-07-09T06:23:17;15.43;;;11.40;;
62582;SDS011;48641;51.676;5.808;2023-07-09T06:25:44;13.15;;;11.32;;
62582;SDS011;48641;51.676;5.808;2023-07-09T06:28:17;15.00;;;11.90;;
62582;SDS011;48641;51.676;5.808;2023-07-09T06:30:44;12.07;;;9.27;;
62582;SDS011;48641;51.676;5.808;2023-07-09T06:33:11;12.88;;;9.57;;
62582;SDS011;48641;51.676;5.808;2023-07-09T06:35:37;13.30;;;10.30;;
62582;SDS011;48641;51.676;5.808;2023-07-09T06:38:04;14.02;;;9.02;;
62582;SDS011;48641;51.676;5.808;2023-07-09T06:40:31;13.45;;;10.68;;
62582;SDS011;48641;51.676;5.808;2023-07-09T06:42:56;14.07;;;10.75;;
62582;SDS011;48641;51.676;5.808;2023-07-09T06:45:23;13.85;;;9.95;;
62582;SDS011;48641;51.676;5.808;2023-07-09T06:47:49;14.02;;;10.65;;
62582;SDS011;48641;51.676;5.808;2023-07-09T06:50:14;14.00;;;10.40;;
62582;SDS011;48641;51.676;5.808;2023-07-09T06:52:40;12.27;;;9.90;;
62582;SDS011;48641;51.676;5.808;2023-07-09T06:55:07;12.90;;;9.68;;
62582;SDS011;48641;51.676;5.808;2023-07-09T06:57:33;16.55;;;10.93;;
62582;SDS011;48641;51.676;5.808;2023-07-09T06:59:59;13.43;;;10.20;;
62582;SDS011;48641;51.676;5.808;2023-07-09T07:02:24;14.93;;;11.18;;
62582;SDS011;48641;51.676;5.808;2023-07-09T07:04:52;16.60;;;12.43;;
62582;SDS011;48641;51.676;5.808;2023-07-09T07:07:17;17.55;;;13.13;;
62582;SDS011;48641;51.676;5.808;2023-07-09T07:09:44;13.77;;;10.40;;
62582;SDS011;48641;51.676;5.808;2023-07-09T07:12:09;16.13;;;10.60;;
62582;SDS011;48641;51.676;5.808;2023-07-09T07:14:44;14.15;;;9.65;;
62582;SDS011;48641;51.676;5.808;2023-07-09T07:17:10;14.65;;;10.00;;
62582;SDS011;48641;51.676;5.808;2023-07-09T07:19:35;15.30;;;10.07;;
62582;SDS011;48641;51.676;5.808;2023-07-09T07:22:01;14.23;;;9.63;;
62582;SDS011;48641;51.676;5.808;2023-07-09T07:24:26;12.45;;;9.60;;
62582;SDS011;48641;51.676;5.808;2023-07-09T07:26:52;11.80;;;8.05;;
62582;SDS011;48641;51.676;5.808;2023-07-09T07:29:18;11.25;;;7.80;;
62582;SDS011;48641;51.676;5.808;2023-07-09T07:31:43;11.30;;;6.65;;
62582;SDS011;48641;51.676;5.808;2023-07-09T07:34:09;10.48;;;7.53;;
62582;SDS011;48641;51.676;5.808;2023-07-09T07:36:35;12.00;;;6.85;;
62582;SDS011;48641;51.676;5.808;2023-07-09T07:39:01;11.05;;;7.40;;
62582;SDS011;48641;51.676;5.808;2023-07-09T07:41:26;12.93;;;7.57;;
62582;SDS011;48641;51.676;5.808;2023-07-09T07:43:52;9.88;;;6.25;;
62582;SDS011;48641;51.676;5.808;2023-07-09T07:46:17;10.85;;;6.93;;
62582;SDS011;48641;51.676;5.808;2023-07-09T07:48:43;10.05;;;5.82;;
62582;SDS011;48641;51.676;5.808;2023-07-09T07:51:09;11.35;;;6.22;;
62582;SDS011;48641;51.676;5.808;2023-07-09T07:53:34;9.90;;;6.22;;
62582;SDS011;48641;51.676;5.808;2023-07-09T07:56:00;10.23;;;5.75;;
62582;SDS011;48641;51.676;5.808;2023-07-09T07:58:27;9.82;;;6.35;;
62582;SDS011;48641;51.676;5.808;2023-07-09T08:00:57;9.70;;;5.68;;
62582;SDS011;48641;51.676;5.808;2023-07-09T08:03:23;8.85;;;5.93;;
62582;SDS011;48641;51.676;5.808;2023-07-09T08:05:49;8.88;;;6.00;;
62582;SDS011;48641;51.676;5.808;2023-07-09T08:08:15;9.23;;;5.90;;
62582;SDS011;48641;51.676;5.808;2023-07-09T08:10:41;8.95;;;6.00;;
62582;SDS011;48641;51.676;5.808;2023-07-09T08:13:07;9.77;;;6.38;;
62582;SDS011;48641;51.676;5.808;2023-07-09T08:15:33;8.55;;;5.85;;
62582;SDS011;48641;51.676;5.808;2023-07-09T08:17:59;9.80;;;5.88;;
62582;SDS011;48641;51.676;5.808;2023-07-09T08:20:25;9.40;;;5.95;;
62582;SDS011;48641;51.676;5.808;2023-07-09T08:22:51;9.63;;;5.53;;
62582;SDS011;48641;51.676;5.808;2023-07-09T08:25:17;9.00;;;5.43;;
62582;SDS011;48641;51.676;5.808;2023-07-09T08:27:43;8.30;;;5.40;;
62582;SDS011;48641;51.676;5.808;2023-07-09T08:30:08;8.95;;;5.13;;
62582;SDS011;48641;51.676;5.808;2023-07-09T08:32:34;9.20;;;5.78;;
62582;SDS011;48641;51.676;5.808;2023-07-09T08:35:00;8.10;;;5.22;;
62582;SDS011;48641;51.676;5.808;2023-07-09T08:37:26;9.05;;;5.50;;
62582;SDS011;48641;51.676;5.808;2023-07-09T08:39:51;8.68;;;5.18;;
62582;SDS011;48641;51.676;5.808;2023-07-09T08:42:19;8.32;;;5.40;;
62582;SDS011;48641;51.676;5.808;2023-07-09T08:45:09;8.05;;;5.20;;
62582;SDS011;48641;51.676;5.808;2023-07-09T08:50:41;7.82;;;4.88;;
62582;SDS011;48641;51.676;5.808;2023-07-09T08:53:16;7.95;;;5.00;;
62582;SDS011;48641;51.676;5.808;2023-07-09T08:55:47;8.10;;;4.88;;
62582;SDS011;48641;51.676;5.808;2023-07-09T08:58:21;7.88;;;4.75;;
62582;SDS011;48641;51.676;5.808;2023-07-09T09:00:54;8.73;;;4.90;;
62582;SDS011;48641;51.676;5.808;2023-07-09T09:06:20;8.45;;;5.38;;
62582;SDS011;48641;51.676;5.808;2023-07-09T09:08:52;9.05;;;4.88;;
62582;SDS011;48641;51.676;5.808;2023-07-09T09:11:44;9.10;;;5.00;;
62582;SDS011;48641;51.676;5.808;2023-07-09T09:14:35;7.50;;;4.75;;
62582;SDS011;48641;51.676;5.808;2023-07-09T09:17:02;7.25;;;4.50;;
62582;SDS011;48641;51.676;5.808;2023-07-09T09:19:34;8.65;;;4.82;;
62582;SDS011;48641;51.676;5.808;2023-07-09T09:22:09;8.38;;;4.97;;
62582;SDS011;48641;51.676;5.808;2023-07-09T09:24:54;8.98;;;5.03;;
62582;SDS011;48641;51.676;5.808;2023-07-09T09:27:36;7.75;;;4.85;;
62582;SDS011;48641;51.676;5.808;2023-07-09T09:30:03;7.65;;;4.70;;
62582;SDS011;48641;51.676;5.808;2023-07-09T09:32:41;7.95;;;4.55;;
62582;SDS011;48641;51.676;5.808;2023-07-09T09:35:17;7.55;;;4.60;;
62582;SDS011;48641;51.676;5.808;2023-07-09T09:37:49;7.97;;;4.43;;
62582;SDS011;48641;51.676;5.808;2023-07-09T09:40:17;7.82;;;4.57;;
62582;SDS011;48641;51.676;5.808;2023-07-09T09:42:43;8.90;;;4.65;;
62582;SDS011;48641;51.676;5.808;2023-07-09T09:45:13;8.32;;;4.97;;
62582;SDS011;48641;51.676;5.808;2023-07-09T09:47:42;7.85;;;4.90;;
62582;SDS011;48641;51.676;5.808;2023-07-09T09:50:18;8.90;;;4.90;;
62582;SDS011;48641;51.676;5.808;2023-07-09T09:52:46;7.72;;;4.70;;
62582;SDS011;48641;51.676;5.808;2023-07-09T09:55:16;7.65;;;4.35;;
62582;SDS011;48641;51.676;5.808;2023-07-09T09:57:53;7.88;;;4.50;;
62582;SDS011;48641;51.676;5.808;2023-07-09T10:00:21;9.15;;;4.63;;
62582;SDS011;48641;51.676;5.808;2023-07-09T10:02:50;7.15;;;4.10;;
62582;SDS011;48641;51.676;5.808;2023-07-09T10:05:16;7.63;;;4.38;;
62582;SDS011;48641;51.676;5.808;2023-07-09T10:07:58;8.32;;;4.40;;
62582;SDS011;48641;51.676;5.808;2023-07-09T10:10:30;7.50;;;4.50;;
62582;SDS011;48641;51.676;5.808;2023-07-09T10:18:12;6.95;;;4.28;;
62582;SDS011;48641;51.676;5.808;2023-07-09T10:20:44;6.97;;;4.25;;
62582;SDS011;48641;51.676;5.808;2023-07-09T10:23:22;7.43;;;4.18;;
62582;SDS011;48641;51.676;5.808;2023-07-09T10:26:09;7.32;;;4.30;;
62582;SDS011;48641;51.676;5.808;2023-07-09T10:28:47;7.93;;;4.30;;
62582;SDS011;48641;51.676;5.808;2023-07-09T10:37:47;6.93;;;4.20;;
62582;SDS011;48641;51.676;5.808;2023-07-09T10:39:56;7.35;;;4.13;;
62582;SDS011;48641;51.676;5.808;2023-07-09T10:42:27;7.82;;;3.95;;
62582;SDS011;48641;51.676;5.808;2023-07-09T10:45:15;6.45;;;3.80;;
62582;SDS011;48641;51.676;5.808;2023-07-09T10:47:49;8.45;;;4.35;;
62582;SDS011;48641;51.676;5.808;2023-07-09T10:53:18;8.68;;;4.57;;
62582;SDS011;48641;51.676;5.808;2023-07-09T11:01:23;6.82;;;4.05;;
62582;SDS011;48641;51.676;5.808;2023-07-09T11:04:01;8.20;;;4.32;;
62582;SDS011;48641;51.676;5.808;2023-07-09T11:06:34;7.75;;;4.32;;
62582;SDS011;48641;51.676;5.808;2023-07-09T11:09:05;7.63;;;4.00;;
62582;SDS011;48641;51.676;5.808;2023-07-09T11:11:39;6.72;;;3.75;;
62582;SDS011;48641;51.676;5.808;2023-07-09T11:14:10;6.88;;;3.90;;
62582;SDS011;48641;51.676;5.808;2023-07-09T11:16:47;6.35;;;3.80;;
62582;SDS011;48641;51.676;5.808;2023-07-09T11:19:17;7.25;;;3.70;;
62582;SDS011;48641;51.676;5.808;2023-07-09T11:21:56;8.98;;;4.10;;
62582;SDS011;48641;51.676;5.808;2023-07-09T11:24:44;6.32;;;3.65;;
62582;SDS011;48641;51.676;5.808;2023-07-09T11:27:30;7.88;;;4.10;;
62582;SDS011;48641;51.676;5.808;2023-07-09T11:29:58;7.40;;;4.07;;
62582;SDS011;48641;51.676;5.808;2023-07-09T13:30:44;6.10;;;3.50;;
62582;SDS011;48641;51.676;5.808;2023-07-09T13:33:10;6.55;;;3.25;;
62582;SDS011;48641;51.676;5.808;2023-07-09T13:35:36;8.98;;;3.83;;
62582;SDS011;48641;51.676;5.808;2023-07-09T13:38:03;6.35;;;3.53;;
62582;SDS011;48641;51.676;5.808;2023-07-09T13:40:35;8.13;;;3.83;;
62582;SDS011;48641;51.676;5.808;2023-07-09T13:43:01;6.43;;;3.80;;
62582;SDS011;48641;51.676;5.808;2023-07-09T13:45:28;7.80;;;4.05;;
62582;SDS011;48641;51.676;5.808;2023-07-09T13:47:53;8.15;;;3.80;;
62582;SDS011;48641;51.676;5.808;2023-07-09T13:50:19;6.93;;;3.67;;
62582;SDS011;48641;51.676;5.808;2023-07-09T13:52:46;8.13;;;3.72;;
62582;SDS011;48641;51.676;5.808;2023-07-09T13:55:15;7.53;;;4.03;;
62582;SDS011;48641;51.676;5.808;2023-07-09T13:57:43;7.70;;;4.10;;
62582;SDS011;48641;51.676;5.808;2023-07-09T14:00:10;8.15;;;4.07;;
62582;SDS011;48641;51.676;5.808;2023-07-09T14:02:37;7.63;;;3.90;;
62582;SDS011;48641;51.676;5.808;2023-07-09T14:05:04;8.05;;;4.40;;
62582;SDS011;48641;51.676;5.808;2023-07-09T14:07:32;8.10;;;4.32;;
62582;SDS011;48641;51.676;5.808;2023-07-09T14:10:00;7.78;;;4.03;;
62582;SDS011;48641;51.676;5.808;2023-07-09T14:12:27;7.93;;;4.53;;
62582;SDS011;48641;51.676;5.808;2023-07-09T14:14:55;8.00;;;4.55;;
62582;SDS011;48641;51.676;5.808;2023-07-09T14:17:24;7.43;;;4.25;;
62582;SDS011;48641;51.676;5.808;2023-07-09T14:19:50;7.25;;;4.18;;
62582;SDS011;48641;51.676;5.808;2023-07-09T14:22:21;8.10;;;4.50;;
62582;SDS011;48641;51.676;5.808;2023-07-09T14:24:49;8.57;;;4.68;;
62582;SDS011;48641;51.676;5.808;2023-07-09T14:27:14;8.25;;;5.03;;
62582;SDS011;48641;51.676;5.808;2023-07-09T14:29:40;7.22;;;4.45;;
62582;SDS011;48641;51.676;5.808;2023-07-09T14:32:09;7.97;;;4.50;;
62582;SDS011;48641;51.676;5.808;2023-07-09T14:35:00;7.90;;;4.97;;
62582;SDS011;48641;51.676;5.808;2023-07-09T14:37:27;7.72;;;4.50;;
62582;SDS011;48641;51.676;5.808;2023-07-09T14:39:53;7.88;;;5.28;;
62582;SDS011;48641;51.676;5.808;2023-07-09T14:42:19;8.15;;;5.05;;
62582;SDS011;48641;51.676;5.808;2023-07-09T14:44:44;8.65;;;5.10;;
62582;SDS011;48641;51.676;5.808;2023-07-09T14:47:19;10.35;;;4.88;;
62582;SDS011;48641;51.676;5.808;2023-07-09T14:49:46;8.63;;;4.88;;
62582;SDS011;48641;51.676;5.808;2023-07-09T14:52:14;8.00;;;4.70;;
62582;SDS011;48641;51.676;5.808;2023-07-09T14:54:42;9.07;;;5.00;;
62582;SDS011;48641;51.676;5.808;2023-07-09T14:57:22;7.88;;;5.05;;
62582;SDS011;48641;51.676;5.808;2023-07-09T14:59:51;7.40;;;4.97;;
62582;SDS011;48641;51.676;5.808;2023-07-09T15:02:21;8.57;;;5.18;;
62582;SDS011;48641;51.676;5.808;2023-07-09T15:04:51;10.02;;;4.97;;
62582;SDS011;48641;51.676;5.808;2023-07-09T15:07:17;9.27;;;5.32;;
62582;SDS011;48641;51.676;5.808;2023-07-09T15:09:42;9.20;;;4.93;;
62582;SDS011;48641;51.676;5.808;2023-07-09T15:12:13;7.57;;;4.80;;
62582;SDS011;48641;51.676;5.808;2023-07-09T15:14:43;7.60;;;5.25;;
62582;SDS011;48641;51.676;5.808;2023-07-09T15:17:12;8.27;;;4.93;;
62582;SDS011;48641;51.676;5.808;2023-07-09T15:19:38;7.60;;;4.40;;
62582;SDS011;48641;51.676;5.808;2023-07-09T15:22:04;6.97;;;4.45;;
62582;SDS011;48641;51.676;5.808;2023-07-09T15:24:31;8.13;;;4.53;;
62582;SDS011;48641;51.676;5.808;2023-07-09T15:29:25;7.95;;;4.97;;
62582;SDS011;48641;51.676;5.808;2023-07-09T15:31:52;7.57;;;4.63;;
62582;SDS011;48641;51.676;5.808;2023-07-09T15:34:18;8.93;;;5.60;;
62582;SDS011;48641;51.676;5.808;2023-07-09T15:36:47;8.07;;;4.70;;
62582;SDS011;48641;51.676;5.808;2023-07-09T15:39:15;9.50;;;5.10;;
62582;SDS011;48641;51.676;5.808;2023-07-09T15:41:45;8.75;;;5.00;;
62582;SDS011;48641;51.676;5.808;2023-07-09T15:44:14;6.85;;;4.32;;
62582;SDS011;48641;51.676;5.808;2023-07-09T15:46:45;8.00;;;4.88;;
62582;SDS011;48641;51.676;5.808;2023-07-09T15:49:21;6.95;;;4.53;;
62582;SDS011;48641;51.676;5.808;2023-07-09T15:51:47;8.05;;;4.72;;
62582;SDS011;48641;51.676;5.808;2023-07-09T15:54:17;9.02;;;5.18;;
62582;SDS011;48641;51.676;5.808;2023-07-09T15:56:45;8.02;;;4.70;;
62582;SDS011;48641;51.676;5.808;2023-07-09T15:59:28;6.97;;;4.30;;
62582;SDS011;48641;51.676;5.808;2023-07-09T16:01:55;7.68;;;4.60;;
62582;SDS011;48641;51.676;5.808;2023-07-09T16:04:21;8.35;;;4.60;;
62582;SDS011;48641;51.676;5.808;2023-07-09T16:06:46;7.35;;;4.53;;
62582;SDS011;48641;51.676;5.808;2023-07-09T16:09:12;7.55;;;4.47;;
62582;SDS011;48641;51.676;5.808;2023-07-09T16:11:39;7.95;;;4.75;;
62582;SDS011;48641;51.676;5.808;2023-07-09T16:14:15;8.35;;;4.70;;
62582;SDS011;48641;51.676;5.808;2023-07-09T16:16:41;8.13;;;4.80;;
62582;SDS011;48641;51.676;5.808;2023-07-09T16:19:07;7.03;;;4.32;;
62582;SDS011;48641;51.676;5.808;2023-07-09T16:21:32;7.03;;;4.28;;
62582;SDS011;48641;51.676;5.808;2023-07-09T16:24:00;7.25;;;4.78;;
62582;SDS011;48641;51.676;5.808;2023-07-09T16:26:33;8.07;;;4.63;;
62582;SDS011;48641;51.676;5.808;2023-07-09T16:28:59;8.20;;;4.50;;
62582;SDS011;48641;51.676;5.808;2023-07-09T16:31:25;7.50;;;4.30;;
62582;SDS011;48641;51.676;5.808;2023-07-09T16:33:50;8.88;;;4.82;;
62582;SDS011;48641;51.676;5.808;2023-07-09T16:36:17;8.23;;;5.32;;
62582;SDS011;48641;51.676;5.808;2023-07-09T16:38:44;7.65;;;4.78;;
62582;SDS011;48641;51.676;5.808;2023-07-09T16:41:10;6.57;;;4.10;;
62582;SDS011;48641;51.676;5.808;2023-07-09T16:43:37;8.02;;;4.80;;
62582;SDS011;48641;51.676;5.808;2023-07-09T16:46:09;8.25;;;4.60;;
62582;SDS011;48641;51.676;5.808;2023-07-09T16:48:40;7.07;;;4.50;;
62582;SDS011;48641;51.676;5.808;2023-07-09T16:51:07;7.88;;;4.82;;
62582;SDS011;48641;51.676;5.808;2023-07-09T16:53:34;7.67;;;4.53;;
62582;SDS011;48641;51.676;5.808;2023-07-09T16:55:59;7.30;;;4.35;;
62582;SDS011;48641;51.676;5.808;2023-07-09T16:58:27;8.50;;;4.85;;
62582;SDS011;48641;51.676;5.808;2023-07-09T17:00:57;6.30;;;4.10;;
62582;SDS011;48641;51.676;5.808;2023-07-09T17:03:23;7.60;;;4.20;;
62582;SDS011;48641;51.676;5.808;2023-07-09T17:05:48;7.38;;;4.13;;
62582;SDS011;48641;51.676;5.808;2023-07-09T17:08:14;8.75;;;4.13;;
62582;SDS011;48641;51.676;5.808;2023-07-09T17:10:40;7.00;;;4.00;;
62582;SDS011;48641;51.676;5.808;2023-07-09T17:13:08;7.65;;;4.40;;
62582;SDS011;48641;51.676;5.808;2023-07-09T17:15:41;8.02;;;5.03;;
62582;SDS011;48641;51.676;5.808;2023-07-09T17:18:17;7.45;;;4.70;;
62582;SDS011;48641;51.676;5.808;2023-07-09T17:20:43;8.70;;;4.25;;
62582;SDS011;48641;51.676;5.808;2023-07-09T17:23:10;7.03;;;4.35;;
62582;SDS011;48641;51.676;5.808;2023-07-09T17:25:36;6.97;;;4.30;;
62582;SDS011;48641;51.676;5.808;2023-07-09T17:28:15;7.38;;;4.55;;